createdAt,value
2022-10-01T00:00:52.572Z,99042.28
2022-10-01T00:03:20.321Z,99047.66
2022-10-01T00:05:47.529Z,99050.56
2022-10-01T00:08:15.439Z,99045.19
2022-10-01T00:10:43.366Z,99058.50
2022-10-01T00:13:11.125Z,99050.84
2022-10-01T00:15:41.054Z,99054.88
2022-10-01T00:18:08.953Z,99060.25
2022-10-01T00:20:35.530Z,99053.84
2022-10-01T00:23:02.092Z,99058.16
2022-10-01T00:25:28.738Z,99064.94
2022-10-01T00:27:55.697Z,99054.41
2022-10-01T00:30:22.318Z,99042.16
2022-10-01T00:32:48.887Z,99050.28
2022-10-01T00:35:15.538Z,99039.56
2022-10-01T00:37:42.642Z,99039.09
2022-10-01T00:40:09.421Z,99046.09
2022-10-01T00:42:35.961Z,99046.88
2022-10-01T00:45:02.526Z,99039.56
2022-10-01T00:47:34.048Z,99030.47
2022-10-01T00:50:33.680Z,99032.91
2022-10-01T00:53:07.348Z,99028.59
2022-10-01T00:55:44.929Z,99033.47
2022-10-01T00:58:13.574Z,99028.19
2022-10-01T01:00:41.761Z,99026.81
2022-10-01T01:03:09.415Z,99049.19
2022-10-01T01:05:36.006Z,99040.16
2022-10-01T01:08:03.483Z,99038.69
2022-10-01T01:10:34.162Z,99026.13
2022-10-01T01:13:13.387Z,99029.31
2022-10-01T01:15:44.207Z,99032.91
2022-10-01T01:18:21.676Z,99042.69
2022-10-01T01:20:48.178Z,99055.75
2022-10-01T01:23:14.637Z,99049.44
2022-10-01T01:25:50.670Z,99042.59
2022-10-01T01:28:31.548Z,99045.66
2022-10-01T01:31:01.276Z,99046.72
2022-10-01T01:33:30.930Z,99055.00
2022-10-01T01:36:16.300Z,99048.94
2022-10-01T01:39:00.870Z,99041.69
2022-10-01T01:41:29.462Z,99045.91
2022-10-01T01:43:58.411Z,99053.47
2022-10-01T01:46:31.601Z,99047.06
2022-10-01T01:49:00.438Z,99060.38
2022-10-01T01:51:41.824Z,99063.81
2022-10-01T01:54:08.904Z,99055.13
2022-10-01T01:56:35.794Z,99067.97
2022-10-01T01:59:03.642Z,99064.59
2022-10-01T02:01:41.408Z,99055.50
2022-10-01T02:04:23.896Z,99053.31
2022-10-01T02:07:16.235Z,99072.91
2022-10-01T02:10:01.977Z,99065.44
2022-10-01T02:13:01.913Z,99073.25
2022-10-01T02:15:55.135Z,99079.75
2022-10-01T02:19:11.997Z,99076.59
2022-10-01T02:21:59.158Z,99079.84
2022-10-01T02:24:34.506Z,99076.13
2022-10-01T02:27:03.902Z,99074.94
2022-10-01T02:29:30.990Z,99077.03
2022-10-01T02:31:57.518Z,99080.41
2022-10-01T02:34:29.403Z,99087.06
2022-10-01T02:36:57.658Z,99083.41
2022-10-01T02:39:27.847Z,99078.31
2022-10-01T02:41:55.799Z,99084.38
2022-10-01T02:44:27.418Z,99083.31
2022-10-01T02:47:07.792Z,99086.19
2022-10-01T02:49:35.970Z,99087.81
2022-10-01T02:52:08.162Z,99082.78
2022-10-01T02:54:56.671Z,99093.91
2022-10-01T02:57:23.500Z,99087.16
2022-10-01T02:59:59.236Z,99094.88
2022-10-01T03:02:28.064Z,99074.22
2022-10-01T03:04:56.854Z,99087.50
2022-10-01T03:07:24.440Z,99080.72
2022-10-01T03:09:51.118Z,99079.81
2022-10-01T03:12:18.246Z,99075.28
2022-10-01T03:14:45.710Z,99084.97
2022-10-01T03:17:13.373Z,99075.13
2022-10-01T03:19:40.353Z,99079.34
2022-10-01T03:22:08.254Z,99082.03
2022-10-01T03:24:34.971Z,99074.72
2022-10-01T03:27:01.768Z,99081.78
2022-10-01T03:29:28.328Z,99068.03
2022-10-01T03:31:55.101Z,99061.81
2022-10-01T03:34:21.882Z,99058.59
2022-10-01T03:36:48.611Z,99063.63
2022-10-01T03:39:15.196Z,99061.84
2022-10-01T03:41:41.779Z,99070.38
2022-10-01T03:44:08.342Z,99080.09
2022-10-01T03:46:34.908Z,99094.16
2022-10-01T03:49:01.732Z,99086.91
2022-10-01T03:51:29.080Z,99082.84
2022-10-01T03:53:56.368Z,99092.41
2022-10-01T03:56:22.966Z,99096.75
2022-10-01T03:58:49.698Z,99105.38
2022-10-01T04:01:16.657Z,99107.00
2022-10-01T04:03:43.854Z,99108.63
2022-10-01T04:06:11.036Z,99104.25
2022-10-01T04:08:38.892Z,99102.69
2022-10-01T04:11:06.346Z,99105.94
2022-10-01T04:13:34.574Z,99094.00
2022-10-01T04:16:02.516Z,99093.91
2022-10-01T04:18:29.499Z,99091.00
2022-10-01T04:20:56.024Z,99084.81
2022-10-01T04:23:22.670Z,99091.00
2022-10-01T04:25:49.530Z,99093.09
2022-10-01T04:28:16.793Z,99094.75
2022-10-01T04:30:45.177Z,99098.25
2022-10-01T04:33:14.203Z,99099.53
2022-10-01T04:35:41.172Z,99100.94
2022-10-01T04:38:19.042Z,99102.53
2022-10-01T04:40:45.625Z,99111.16
2022-10-01T04:43:13.330Z,99111.50
2022-10-01T04:45:39.916Z,99107.75
2022-10-01T04:48:06.523Z,99105.31
2022-10-01T04:50:33.118Z,99102.16
2022-10-01T04:52:59.901Z,99096.69
2022-10-01T04:55:26.486Z,99106.94
2022-10-01T04:57:53.023Z,99103.72
2022-10-01T05:00:22.268Z,99109.88
2022-10-01T05:02:50.119Z,99108.81
2022-10-01T05:05:18.060Z,99104.25
2022-10-01T05:07:44.946Z,99115.59
2022-10-01T05:10:14.421Z,99116.31
2022-10-01T05:12:41.636Z,99111.75
2022-10-01T05:15:08.765Z,99113.81
2022-10-01T05:17:35.994Z,99111.13
2022-10-01T05:20:04.851Z,99118.47
2022-10-01T05:22:32.078Z,99124.72
2022-10-01T05:25:00.310Z,99120.97
2022-10-01T05:27:27.438Z,99122.13
2022-10-01T05:29:54.219Z,99129.44
2022-10-01T05:32:20.761Z,99136.53
2022-10-01T05:34:52.658Z,99128.81
2022-10-01T05:37:20.085Z,99124.94
2022-10-01T05:39:46.720Z,99142.19
2022-10-01T05:42:13.302Z,99143.56
2022-10-01T05:44:45.901Z,99158.72
2022-10-01T05:47:13.908Z,99150.75
2022-10-01T05:49:42.913Z,99139.06
2022-10-01T05:52:13.615Z,99146.66
2022-10-01T05:54:40.447Z,99137.88
2022-10-01T05:57:07.983Z,99137.69
2022-10-01T05:59:35.074Z,99141.84
2022-10-01T06:02:01.915Z,99136.03
2022-10-01T06:04:28.581Z,99132.63
2022-10-01T06:06:56.069Z,99146.13
2022-10-01T06:09:22.699Z,99148.25
2022-10-01T06:11:49.605Z,99149.88
2022-10-01T06:14:16.830Z,99143.03
2022-10-01T06:16:43.584Z,99141.81
2022-10-01T06:19:10.230Z,99133.06
2022-10-01T06:21:37.365Z,99134.75
2022-10-01T06:24:04.426Z,99135.56
2022-10-01T06:26:31.280Z,99123.44
2022-10-01T06:28:57.903Z,99136.22
2022-10-01T06:31:25.157Z,99139.44
2022-10-01T06:33:51.848Z,99131.13
2022-10-01T06:36:18.374Z,99134.88
2022-10-01T06:38:48.244Z,99141.38
2022-10-01T06:41:14.892Z,99139.00
2022-10-01T06:43:41.449Z,99129.31
2022-10-01T06:46:08.172Z,99131.25
2022-10-01T06:48:36.462Z,99126.47
2022-10-01T06:51:03.779Z,99123.03
2022-10-01T06:53:30.396Z,99119.88
2022-10-01T06:55:57.121Z,99112.69
2022-10-01T06:58:27.829Z,99109.81
2022-10-01T07:01:02.122Z,99103.44
2022-10-01T07:03:28.939Z,99099.47
2022-10-01T07:06:02.171Z,99094.72
2022-10-01T07:08:28.844Z,99101.16
2022-10-01T07:11:00.386Z,99103.66
2022-10-01T07:13:27.018Z,99108.09
2022-10-01T07:15:53.628Z,99108.47
2022-10-01T07:18:20.810Z,99104.50
2022-10-01T07:20:47.445Z,99108.63
2022-10-01T07:23:15.375Z,99107.63
2022-10-01T07:25:43.019Z,99097.47
2022-10-01T07:28:17.905Z,99095.41
2022-10-01T07:30:47.541Z,99093.00
2022-10-01T07:33:17.853Z,99086.31
2022-10-01T07:35:44.493Z,99080.91
2022-10-01T07:38:11.080Z,99084.16
2022-10-01T07:40:37.729Z,99090.13
2022-10-01T07:43:04.366Z,99081.44
2022-10-01T07:45:31.101Z,99085.19
2022-10-01T07:48:00.042Z,99088.94
2022-10-01T07:50:27.365Z,99088.06
2022-10-01T07:52:56.139Z,99087.63
2022-10-01T07:55:24.148Z,99088.38
2022-10-01T07:57:52.478Z,99076.72
2022-10-01T08:00:19.684Z,99067.50
2022-10-01T08:02:54.327Z,99074.38
2022-10-01T08:05:23.334Z,99082.56
2022-10-01T08:07:50.073Z,99083.25
2022-10-01T08:10:18.041Z,99083.53
2022-10-01T08:12:45.691Z,99087.91
2022-10-01T08:15:14.440Z,99089.50
2022-10-01T08:17:41.816Z,99090.31
2022-10-01T08:20:10.694Z,99081.03
2022-10-01T08:22:41.643Z,99087.78
2022-10-01T08:25:09.395Z,99082.25
2022-10-01T08:27:36.383Z,99088.75
2022-10-01T08:30:03.558Z,99095.47
2022-10-01T08:32:31.472Z,99097.06
2022-10-01T08:35:00.010Z,99090.03
2022-10-01T08:37:27.751Z,99100.59
2022-10-01T08:39:55.636Z,99105.75
2022-10-01T08:42:37.466Z,99112.31
2022-10-01T08:45:15.024Z,99107.50
2022-10-01T08:47:45.513Z,99107.25
2022-10-01T08:50:32.280Z,99117.28
2022-10-01T08:53:02.151Z,99106.50
2022-10-01T08:55:36.241Z,99104.91
2022-10-01T08:58:09.106Z,99119.31
2022-10-01T09:00:40.090Z,99121.72
2022-10-01T09:03:11.945Z,99116.88
2022-10-01T09:05:59.981Z,99109.56
2022-10-01T09:08:59.929Z,99111.72
2022-10-01T09:11:55.154Z,99096.84
2022-10-01T09:14:30.613Z,99106.31
2022-10-01T09:17:23.519Z,99100.06
2022-10-01T09:19:54.972Z,99091.72
2022-10-01T09:22:44.492Z,99079.28
2022-10-01T09:25:17.471Z,99078.47
2022-10-01T09:27:44.495Z,99077.13
2022-10-01T09:30:14.755Z,99088.75
2022-10-01T09:33:02.945Z,99087.13
2022-10-01T09:35:38.807Z,99078.19
2022-10-01T09:38:44.000Z,99082.22
2022-10-01T09:41:11.836Z,99085.97
2022-10-01T09:43:39.988Z,99081.06
2022-10-01T09:46:13.399Z,99082.66
2022-10-01T09:48:54.895Z,99077.72
2022-10-01T09:51:25.805Z,99067.69
2022-10-01T09:54:05.102Z,99065.09
2022-10-01T09:56:42.392Z,99065.97
2022-10-01T09:59:17.976Z,99069.66
2022-10-01T10:01:48.291Z,99072.72
2022-10-01T10:04:23.799Z,99066.66
2022-10-01T10:06:51.523Z,99077.81
2022-10-01T10:09:20.108Z,99071.13
2022-10-01T10:11:46.780Z,99066.06
2022-10-01T10:14:20.010Z,99060.81
2022-10-01T10:16:48.012Z,99068.38
2022-10-01T10:19:23.489Z,99063.22
2022-10-01T10:21:56.613Z,99063.75
2022-10-01T10:24:26.572Z,99064.03
2022-10-01T10:26:56.473Z,99058.34
2022-10-01T10:29:27.742Z,99061.59
2022-10-01T10:31:55.534Z,99060.84
2022-10-01T10:34:31.883Z,99059.50
2022-10-01T10:37:00.599Z,99062.41
2022-10-01T10:39:33.972Z,99055.78
2022-10-01T10:42:02.208Z,99046.53
2022-10-01T10:44:35.188Z,99039.13
2022-10-01T10:47:06.125Z,99036.13
2022-10-01T10:49:40.740Z,99025.34
2022-10-01T10:52:24.367Z,99012.63
2022-10-01T10:54:54.491Z,99014.16
2022-10-01T10:57:28.085Z,99015.31
2022-10-01T11:00:16.561Z,99012.66
2022-10-01T11:03:01.811Z,99014.94
2022-10-01T11:05:32.084Z,99012.88
2022-10-01T11:08:02.359Z,99013.72
2022-10-01T11:10:39.113Z,99001.63
2022-10-01T11:13:12.206Z,99007.63
2022-10-01T11:15:52.243Z,98995.19
2022-10-01T11:18:21.545Z,99000.56
2022-10-01T11:21:00.634Z,98990.56
2022-10-01T11:23:47.309Z,98978.59
2022-10-01T11:26:28.802Z,98975.31
2022-10-01T11:29:03.801Z,98967.69
2022-10-01T11:32:02.908Z,98962.47
2022-10-01T11:35:05.075Z,98963.28
2022-10-01T11:37:38.815Z,98953.03
2022-10-01T11:40:16.501Z,98949.81
2022-10-01T11:42:44.796Z,98953.03
2022-10-01T11:45:29.447Z,98949.00
2022-10-01T11:48:01.315Z,98941.94
2022-10-01T11:50:39.492Z,98936.47
2022-10-01T11:53:12.348Z,98931.88
2022-10-01T11:56:02.109Z,98935.22
2022-10-01T11:58:52.616Z,98929.09
2022-10-01T12:01:56.669Z,98924.47
2022-10-01T12:04:32.748Z,98927.78
2022-10-01T12:07:03.193Z,98929.75
2022-10-01T12:09:44.388Z,98927.78
2022-10-01T12:12:17.266Z,98920.34
2022-10-01T12:15:01.710Z,98923.41
2022-10-01T12:17:45.360Z,98911.47
2022-10-01T12:20:36.110Z,98906.44
2022-10-01T12:23:04.401Z,98905.78
2022-10-01T12:25:55.066Z,98908.13
2022-10-01T12:28:28.291Z,98897.66
2022-10-01T12:30:59.909Z,98890.44
2022-10-01T12:33:46.793Z,98893.16
2022-10-01T12:36:36.645Z,98901.66
2022-10-01T12:39:13.601Z,98893.00
2022-10-01T12:42:06.910Z,98884.53
2022-10-01T12:44:57.008Z,98881.50
2022-10-01T12:47:42.987Z,98877.19
2022-10-01T12:50:36.673Z,98873.84
2022-10-01T12:53:23.337Z,98879.03
2022-10-01T12:56:08.719Z,98877.31
2022-10-01T12:58:55.018Z,98870.47
2022-10-01T13:01:43.409Z,98863.00
2022-10-01T13:04:35.381Z,98863.00
2022-10-01T13:07:17.163Z,98856.00
2022-10-01T13:10:21.587Z,98853.56
2022-10-01T13:13:02.195Z,98858.19
2022-10-01T13:15:35.658Z,98849.72
2022-10-01T13:18:40.156Z,98843.13
2022-10-01T13:21:16.558Z,98843.06
2022-10-01T13:23:50.234Z,98852.13
2022-10-01T13:26:59.267Z,98848.31
2022-10-01T13:29:28.821Z,98852.13
2022-10-01T13:32:00.047Z,98847.72
2022-10-01T13:34:42.157Z,98856.47
2022-10-01T13:37:14.211Z,98852.56
2022-10-01T13:39:42.266Z,98854.00
2022-10-01T13:42:21.115Z,98863.91
2022-10-01T13:44:53.670Z,98865.09
2022-10-01T13:47:21.245Z,98867.44
2022-10-01T13:50:04.883Z,98865.94
2022-10-01T13:52:32.434Z,98873.19
2022-10-01T13:55:00.703Z,98874.00
2022-10-01T13:57:28.950Z,98872.69
2022-10-01T13:59:59.811Z,98885.38
2022-10-01T14:02:34.428Z,98884.94
2022-10-01T14:05:25.587Z,98898.97
2022-10-01T14:07:57.115Z,98887.66
2022-10-01T14:10:29.823Z,98890.66
2022-10-01T14:13:18.420Z,98901.38
2022-10-01T14:16:00.511Z,98892.41
2022-10-01T14:18:30.915Z,98896.72
2022-10-01T14:21:32.831Z,98882.53
2022-10-01T14:24:23.905Z,98889.00
2022-10-01T14:27:02.767Z,98887.84
2022-10-01T14:29:54.373Z,98881.78
2022-10-01T14:32:50.791Z,98874.91
2022-10-01T14:35:23.479Z,98868.56
2022-10-01T14:37:51.333Z,98873.00
2022-10-01T14:40:23.427Z,98872.28
2022-10-01T14:43:00.878Z,98867.47
2022-10-01T14:45:28.218Z,98864.59
2022-10-01T14:48:05.746Z,98866.50
2022-10-01T14:50:37.671Z,98866.72
2022-10-01T14:53:05.289Z,98863.78
2022-10-01T14:55:32.001Z,98851.22
2022-10-01T14:57:58.820Z,98856.94
2022-10-01T15:00:29.966Z,98851.09
2022-10-01T15:03:18.378Z,98853.44
2022-10-01T15:05:46.882Z,98846.59
2022-10-01T15:08:20.636Z,98846.94
2022-10-01T15:10:53.307Z,98848.34
2022-10-01T15:13:41.293Z,98853.03
2022-10-01T15:16:13.009Z,98870.34
2022-10-01T15:18:42.982Z,98855.81
2022-10-01T15:21:16.441Z,98853.31
2022-10-01T15:23:43.347Z,98856.75
2022-10-01T15:26:12.758Z,98858.09
2022-10-01T15:28:39.695Z,98857.22
2022-10-01T15:31:07.169Z,98851.59
2022-10-01T15:33:40.384Z,98847.56
2022-10-01T15:36:17.220Z,98854.91
2022-10-01T15:38:45.364Z,98863.63
2022-10-01T15:41:32.778Z,98857.69
2022-10-01T15:44:03.041Z,98867.69
2022-10-01T15:46:34.967Z,98864.75
2022-10-01T15:49:13.358Z,98856.91
2022-10-01T15:52:15.849Z,98839.13
2022-10-01T15:54:43.877Z,98826.44
2022-10-01T15:57:17.248Z,98838.31
2022-10-01T15:59:43.880Z,98840.47
2022-10-01T16:02:18.740Z,98851.56
2022-10-01T16:04:46.727Z,98852.09
2022-10-01T16:07:28.457Z,98848.31
2022-10-01T16:10:00.205Z,98855.59
2022-10-01T16:12:28.227Z,98857.78
2022-10-01T16:15:03.718Z,98871.53
2022-10-01T16:17:35.656Z,98866.91
2022-10-01T16:20:14.182Z,98874.19
2022-10-01T16:22:41.314Z,98880.38
2022-10-01T16:25:17.137Z,98879.28
2022-10-01T16:27:45.120Z,98883.88
2022-10-01T16:30:19.886Z,98891.16
2022-10-01T16:32:46.641Z,98887.34
2022-10-01T16:35:17.161Z,98898.13
2022-10-01T16:37:45.622Z,98905.38
2022-10-01T16:40:15.991Z,98899.16
2022-10-01T16:42:44.589Z,98902.94
2022-10-01T16:45:16.900Z,98870.28
2022-10-01T16:47:45.034Z,98855.97
2022-10-01T16:50:14.303Z,98871.66
2022-10-01T16:52:40.975Z,98871.34
2022-10-01T16:55:30.617Z,98880.25
2022-10-01T16:57:57.241Z,98894.50
2022-10-01T17:00:27.783Z,98904.47
2022-10-01T17:02:55.081Z,98907.34
2022-10-01T17:05:36.034Z,98897.63
2022-10-01T17:08:09.957Z,98912.66
2022-10-01T17:10:43.130Z,98909.69
2022-10-01T17:13:11.701Z,98906.16
2022-10-01T17:15:38.630Z,98907.00
2022-10-01T17:18:05.230Z,98913.91
2022-10-01T17:20:32.122Z,98898.84
2022-10-01T17:22:58.847Z,98908.50
2022-10-01T17:25:31.956Z,98921.47
2022-10-01T17:27:59.763Z,98914.81
2022-10-01T17:30:29.146Z,98913.44
2022-10-01T17:32:56.949Z,98912.91
2022-10-01T17:35:24.602Z,98911.28
2022-10-01T17:37:51.252Z,98913.13
2022-10-01T17:40:18.137Z,98913.06
2022-10-01T17:42:44.982Z,98914.22
2022-10-01T17:45:13.865Z,98915.63
2022-10-01T17:47:46.358Z,98919.44
2022-10-01T17:50:14.608Z,98926.75
2022-10-01T17:52:41.386Z,98920.22
2022-10-01T17:55:08.603Z,98912.41
2022-10-01T17:57:35.206Z,98923.41
2022-10-01T18:00:02.371Z,98922.28
2022-10-01T18:02:43.172Z,98938.50
2022-10-01T18:05:12.447Z,98930.84
2022-10-01T18:07:39.490Z,98927.63
2022-10-01T18:10:08.720Z,98930.81
2022-10-01T18:12:35.426Z,98932.97
2022-10-01T18:15:02.161Z,98932.22
2022-10-01T18:17:32.102Z,98938.88
2022-10-01T18:19:59.175Z,98945.69
2022-10-01T18:22:27.440Z,98934.41
2022-10-01T18:24:54.394Z,98937.28
2022-10-01T18:27:21.396Z,98931.34
2022-10-01T18:29:48.185Z,98943.34
2022-10-01T18:32:17.696Z,98947.16
2022-10-01T18:35:03.288Z,98947.38
2022-10-01T18:37:42.586Z,98946.13
2022-10-01T18:40:35.648Z,98954.63
2022-10-01T18:43:02.453Z,98964.31
2022-10-01T18:45:37.961Z,98954.59
2022-10-01T18:48:37.456Z,98948.06
2022-10-01T18:51:19.832Z,98950.63
2022-10-01T18:54:37.023Z,98948.72
2022-10-01T18:57:12.915Z,98964.41
2022-10-01T19:00:02.678Z,98973.50
2022-10-01T19:02:50.304Z,98956.81
2022-10-01T19:05:38.816Z,98965.16
2022-10-01T19:08:14.294Z,98969.13
2022-10-01T19:10:47.047Z,98966.50
2022-10-01T19:13:28.770Z,98967.06
2022-10-01T19:16:14.188Z,98977.81
2022-10-01T19:19:01.758Z,98977.00
2022-10-01T19:21:52.750Z,98984.59
2022-10-01T19:24:20.459Z,98992.75
2022-10-01T19:26:57.764Z,98998.13
2022-10-01T19:29:30.342Z,98994.28
2022-10-01T19:32:08.824Z,99007.53
2022-10-01T19:34:43.170Z,99018.81
2022-10-01T19:37:17.609Z,99016.88
2022-10-01T19:39:45.344Z,99019.53
2022-10-01T19:42:16.743Z,99024.38
2022-10-01T19:45:08.035Z,99028.53
2022-10-01T19:47:34.659Z,99030.16
2022-10-01T19:50:07.090Z,99029.22
2022-10-01T19:52:38.317Z,99030.50
2022-10-01T19:55:14.033Z,99031.06
2022-10-01T19:57:44.338Z,99038.28
2022-10-01T20:00:18.089Z,99023.63
2022-10-01T20:02:57.158Z,99043.06
2022-10-01T20:05:32.001Z,99051.28
2022-10-01T20:08:29.012Z,99057.84
2022-10-01T20:11:13.998Z,99039.44
2022-10-01T20:13:58.624Z,99042.44
2022-10-01T20:16:29.805Z,99055.13
2022-10-01T20:19:05.442Z,99042.72
2022-10-01T20:21:44.590Z,99044.41
2022-10-01T20:24:39.370Z,99057.41
2022-10-01T20:27:16.077Z,99066.00
2022-10-01T20:29:51.059Z,99065.25
2022-10-01T20:32:29.705Z,99059.69
2022-10-01T20:35:14.158Z,99069.31
2022-10-01T20:38:02.108Z,99064.06
2022-10-01T20:40:32.736Z,99068.53
2022-10-01T20:43:09.319Z,99055.66
2022-10-01T20:45:36.471Z,99041.34
2022-10-01T20:48:19.340Z,99052.53
2022-10-01T20:51:00.756Z,99054.47
2022-10-01T20:53:38.854Z,99056.25
2022-10-01T20:56:11.565Z,99065.81
2022-10-01T20:58:57.465Z,99071.50
2022-10-01T21:01:26.516Z,99063.47
2022-10-01T21:04:01.600Z,99072.13
2022-10-01T21:06:35.575Z,99060.69
2022-10-01T21:09:10.564Z,99065.72
2022-10-01T21:11:42.201Z,99079.44
2022-10-01T21:14:49.406Z,99092.53
2022-10-01T21:17:21.782Z,99094.50
2022-10-01T21:20:13.191Z,99095.19
2022-10-01T21:23:01.350Z,99108.47
2022-10-01T21:25:44.094Z,99114.69
2022-10-01T21:28:31.159Z,99112.13
2022-10-01T21:31:09.509Z,99112.53
2022-10-01T21:33:54.159Z,99126.44
2022-10-01T21:36:26.745Z,99120.50
2022-10-01T21:39:25.544Z,99125.28
2022-10-01T21:42:14.695Z,99123.97
2022-10-01T21:44:47.411Z,99126.88
2022-10-01T21:47:14.060Z,99124.03
2022-10-01T21:50:03.599Z,99121.72
2022-10-01T21:52:33.117Z,99127.53
2022-10-01T21:55:18.264Z,99122.16
2022-10-01T21:58:10.556Z,99121.84
2022-10-01T22:00:37.273Z,99114.84
2022-10-01T22:03:12.886Z,99128.81
2022-10-01T22:05:54.861Z,99120.50
2022-10-01T22:08:24.771Z,99128.50
2022-10-01T22:11:01.767Z,99125.75
2022-10-01T22:13:31.404Z,99124.31
2022-10-01T22:16:07.645Z,99123.06
2022-10-01T22:18:42.766Z,99136.84
2022-10-01T22:21:14.632Z,99128.97
2022-10-01T22:23:46.346Z,99145.69
2022-10-01T22:26:16.593Z,99136.16
2022-10-01T22:28:47.156Z,99128.66
2022-10-01T22:31:27.211Z,99126.84
2022-10-01T22:34:12.773Z,99132.53
2022-10-01T22:36:43.640Z,99134.56
2022-10-01T22:39:25.931Z,99137.53
2022-10-01T22:42:03.563Z,99139.31
2022-10-01T22:44:30.187Z,99135.88
2022-10-01T22:47:21.111Z,99133.75
2022-10-01T22:50:14.085Z,99141.66
2022-10-01T22:52:59.112Z,99134.25
2022-10-01T22:55:37.944Z,99130.22
2022-10-01T22:58:14.517Z,99136.09
2022-10-01T23:01:14.061Z,99147.00
2022-10-01T23:03:53.610Z,99131.03
2022-10-01T23:06:29.329Z,99142.88
2022-10-01T23:09:05.787Z,99131.88
2022-10-01T23:11:50.144Z,99136.44
2022-10-01T23:14:39.462Z,99130.63
2022-10-01T23:17:08.171Z,99157.88
2022-10-01T23:19:53.579Z,99168.06
2022-10-01T23:22:48.692Z,99158.28
2022-10-01T23:25:19.363Z,99178.38
2022-10-01T23:27:58.213Z,99177.94
2022-10-01T23:30:25.263Z,99169.75
2022-10-01T23:32:54.813Z,99178.00
2022-10-01T23:35:25.366Z,99184.50
2022-10-01T23:38:13.047Z,99177.19
2022-10-01T23:40:42.226Z,99183.16
2022-10-01T23:43:35.502Z,99173.00
2022-10-01T23:46:09.937Z,99191.03
2022-10-01T23:48:42.784Z,99190.53
2022-10-01T23:51:25.696Z,99181.44
2022-10-01T23:54:00.642Z,99184.13
2022-10-01T23:56:49.386Z,99195.75
2022-10-01T23:59:19.458Z,99193.09
